Italic G — IBYH — position and weather

sailwx.info

Track history (hours):
 
Tides and Currents Weather Stations Pressure Air Temp Water Temp Dewpoint Dewpoint Depression Visibility Wind Speed Wind Dir Waves Ship Positions

Italic G

Last reported at 2016-Aug-20 23:27 UTC. Time now 2016-Aug-27 04:43 UTC.
Position N 55°41' E 006°06'.

Length 229 m; draft 7.1 m.

Type: Cargo ship. MMSI: 247282300.

Date/timePositionNaut miles runAvg speedWind from/ knotsBaromVisibWave heightAir tempDewpointWater temp
2016-Aug-20 23:27N 55°41' E 006°06'1213.2
2016-Aug-20 22:33N 55°30' E 006°13'1313.1
2016-Aug-20 21:33N 55°17' E 006°20'1313.2
2016-Aug-20 20:33N 55°04' E 006°26'5410.3
2016-Aug-20 15:20N 54°13' E 006°54'1113.9
2016-Aug-20 14:33N 54°13' E 007°12'1212.3
2016-Aug-20 13:33N 54°08' E 007°32'1413.6
2016-Aug-20 12:33N 53°56' E 007°43'1111.4
2016-Aug-20 11:33N 53°49' E 007°58'1110.6
2016-Aug-20 10:33N 53°40' E 008°07'5 0.5
2016-Aug-20 00:08N 53°35' E 008°09'0 0.0
2016-Aug-19 23:30N 53°35' E 008°09'0 0.0
2016-Aug-19 21:33N 53°35' E 008°09'0 0.0
2016-Aug-19 20:33N 53°35' E 008°09'0 0.0
2016-Aug-19 19:30N 53°35' E 008°09'0 0.0
2016-Aug-19 18:24N 53°35' E 008°09'0 0.0
2016-Aug-19 17:18N 53°35' E 008°09'0 0.0
2016-Aug-19 02:24N 53°35' E 008°09'0 0.0
2016-Aug-18 12:21N 53°35' E 008°09'0 0.0
2016-Aug-18 03:09N 53°35' E 008°09'0 0.0
2016-Aug-18 02:18N 53°35' E 008°09'0 0.0
2016-Aug-18 01:33N 53°35' E 008°09'0 0.0
2016-Aug-17 20:30N 53°35' E 008°09'0 0.0
2016-Aug-17 09:32N 53°35' E 008°10'8 7.3
2016-Aug-17 08:30N 53°42' E 008°04'1010.5
2016-Aug-17 07:33N 53°50' E 007°54'1111.4
2016-Aug-17 06:34N 53°57' E 007°39'1111.0
2016-Aug-17 05:33N 54°06' E 007°29'3 2.7
2016-Aug-17 04:34N 54°07' E 007°24'2 1.5
2016-Aug-17 03:33N 54°07' E 007°27'2 2.2
2016-Aug-17 02:34N 54°09' E 007°27'7 6.8
2016-Aug-17 01:34N 54°09' E 007°15'1510.0
2016-Aug-17 00:05N 54°09' E 006°50'710.4
2016-Aug-16 23:22N 54°08' E 006°37'8 9.4
2016-Aug-16 22:33N 54°14' E 006°29'1111.4
2016-Aug-16 21:34N 54°25' E 006°29'1611.4
2016-Aug-16 20:07N 54°42' E 006°29'711.3
2016-Aug-16 19:31N 54°48' E 006°29'1111.8
2016-Aug-16 18:34N 54°60' E 006°29'1311.6
2016-Aug-16 17:28N 55°12' E 006°32'1011.4
2016-Aug-16 16:33N 55°23' E 006°34'1111.2
2016-Aug-16 15:33N 55°34' E 006°37'1211.1
2016-Aug-16 14:26N 55°46' E 006°39'1411.1
2016-Aug-16 13:09N 56°00' E 006°43'711.2
2016-Aug-16 12:33N 56°07' E 006°45'1111.3
2016-Aug-16 11:34N 56°18' E 006°48'1211.5
2016-Aug-16 10:33N 56°29' E 006°51'1211.7
2016-Aug-16 09:32N 56°41' E 006°54'1211.7
2016-Aug-16 08:33N 56°52' E 006°56'1111.4
2016-Aug-16 07:34N 57°04' E 006°60'3210.8
2016-Aug-16 04:33N 57°18' E 007°53'1110.8
2016-Aug-16 03:33N 57°23' E 008°11'1110.7
2016-Aug-16 02:32N 57°28' E 008°29'1210.8
2016-Aug-16 01:24N 57°33' E 008°50'910.7
2016-Aug-16 00:33N 57°37' E 009°05'1110.5
2016-Aug-15 23:33N 57°42' E 009°23'1010.5
2016-Aug-15 22:33N 57°46' E 009°41'1110.8
2016-Aug-15 21:33N 57°50' E 009°59'1110.8
2016-Aug-15 20:33N 57°50' E 010°20'1111.3
2016-Aug-15 19:32N 57°49' E 010°41'7 7.3
2016-Aug-15 18:32N 57°41' E 010°42'0 0.4
2016-Aug-15 17:33N 57°41' E 010°42'0 0.1
2016-Aug-15 16:33N 57°41' E 010°42'0 0.0
2016-Aug-15 15:30N 57°41' E 010°42'0 0.1
2016-Aug-15 14:18N 57°41' E 010°42'5 6.7
2016-Aug-15 13:33N 57°38' E 010°49'1211.8
2016-Aug-15 12:33N 57°33' E 011°09'1211.5
2016-Aug-15 11:33N 57°27' E 011°27'1212.4
2016-Aug-15 10:33N 57°15' E 011°34'1211.9
2016-Aug-15 09:33N 57°04' E 011°43'1211.7
2016-Aug-15 08:33N 56°53' E 011°49'1110.6
2016-Aug-15 07:33N 56°42' E 011°51'1312.2
2016-Aug-15 06:31N 56°31' E 011°38'7310.2
2016-Aug-14 23:20N 55°21' E 011°02'8 9.3
2016-Aug-14 22:29N 55°14' E 011°06'910.0
2016-Aug-14 21:33N 55°05' E 010°59'1010.1
2016-Aug-14 20:34N 54°56' E 010°53'1110.9
2016-Aug-14 19:33N 54°45' E 010°48'9 9.1
2016-Aug-14 18:33N 54°37' E 010°56'1110.8
2016-Aug-14 17:33N 54°35' E 011°14'1111.2
2016-Aug-14 16:33N 54°30' E 011°32'1111.3
2016-Aug-14 15:34N 54°27' E 011°51'1110.8
2016-Aug-14 14:34N 54°27' E 012°09'10 9.8
2016-Aug-14 13:31N 54°36' E 012°17'9 9.4
2016-Aug-14 12:32N 54°41' E 012°30'4510.6
2016-Aug-14 08:19N 54°59' E 013°41'710.0
2016-Aug-14 07:33N 55°02' E 013°53'1010.4
2016-Aug-14 06:33N 55°08' E 014°08'2211.0
2016-Aug-14 04:33N 55°24' E 014°33'1010.1
2016-Aug-14 03:33N 55°30' E 014°47'1010.4
2016-Aug-14 02:33N 55°35' E 015°04'1010.4
2016-Aug-14 01:33N 55°38' E 015°22'346 9.9
2016-Aug-12 14:33N 59°37' E 023°09'1212.1
2016-Aug-12 13:33N 59°40' E 023°32'1311.9
2016-Aug-12 12:29N 59°44' E 023°56'1511.8
2016-Aug-12 11:13N 59°47' E 024°25'5811.7
2016-Aug-12 06:13N 59°59' E 026°19'710.2
2016-Aug-12 05:34N 60°05' E 026°27'4 4.1
2016-Aug-12 04:31N 60°09' E 026°30'0 0.0
2016-Aug-12 03:31N 60°09' E 026°30'0 0.0
2016-Aug-12 02:31N 60°09' E 026°30'0 0.0
2016-Aug-12 01:25N 60°09' E 026°30'0 0.0
2016-Aug-12 00:31N 60°09' E 026°30'0 0.0
2016-Aug-11 23:31N 60°09' E 026°30'0 0.0
2016-Aug-11 22:31N 60°09' E 026°30'0 0.0
2016-Aug-11 21:31N 60°09' E 026°30'0 0.1
2016-Aug-11 20:31N 60°09' E 026°30'0 0.0
2016-Aug-11 19:31N 60°09' E 026°30'0 0.0
2016-Aug-11 18:32N 60°09' E 026°30'0 0.0
2016-Aug-11 17:22N 60°09' E 026°30'0 0.2
2016-Aug-11 16:33N 60°09' E 026°30'0 0.2
2016-Aug-11 15:31N 60°09' E 026°30'0 0.1
2016-Aug-11 14:33N 60°09' E 026°30'0 0.1
2016-Aug-11 13:33N 60°09' E 026°29'0 0.0
2016-Aug-11 12:33N 60°09' E 026°29'0 0.0
2016-Aug-11 11:33N 60°09' E 026°29'0 0.0
2016-Aug-11 10:33N 60°09' E 026°30'0 0.0
2016-Aug-11 09:33N 60°09' E 026°30'0 0.0
2016-Aug-11 08:33N 60°09' E 026°30'0 0.0
2016-Aug-11 07:33N 60°09' E 026°30'0 0.0
2016-Aug-11 06:31N 60°09' E 026°30'0 0.1
2016-Aug-11 05:31N 60°09' E 026°30'0 0.1
2016-Aug-11 04:30N 60°09' E 026°30'0 0.0
2016-Aug-11 03:30N 60°09' E 026°30'0 0.0
2016-Aug-11 02:33N 60°09' E 026°30'0 0.0
2016-Aug-11 01:33N 60°09' E 026°30'0 0.0
2016-Aug-11 00:33N 60°09' E 026°30'0 0.0
2016-Aug-10 23:33N 60°09' E 026°30'  
Track history (hours):
 
Tides and Currents Weather Stations Pressure Air Temp Water Temp Dewpoint Dewpoint Depression Visibility Wind Speed Wind Dir Waves Ship Positions

Italic G

Last reported at 2016-Aug-20 23:27 UTC. Time now 2016-Aug-27 04:43 UTC.
Position N 55°41' E 006°06'.

Length 229 m; draft 7.1 m.

Type: Cargo ship. MMSI: 247282300.

Date/timePositionNaut miles runAvg speedWind from/ knotsBaromVisibWave heightAir tempDewpointWater temp
2016-Aug-20 23:27N 55°41' E 006°06'1213.2
2016-Aug-20 22:33N 55°30' E 006°13'1313.1
2016-Aug-20 21:33N 55°17' E 006°20'1313.2
2016-Aug-20 20:33N 55°04' E 006°26'5410.3
2016-Aug-20 15:20N 54°13' E 006°54'1113.9
2016-Aug-20 14:33N 54°13' E 007°12'1212.3
2016-Aug-20 13:33N 54°08' E 007°32'1413.6
2016-Aug-20 12:33N 53°56' E 007°43'1111.4
2016-Aug-20 11:33N 53°49' E 007°58'1110.6
2016-Aug-20 10:33N 53°40' E 008°07'5 0.5
2016-Aug-20 00:08N 53°35' E 008°09'0 0.0
2016-Aug-19 23:30N 53°35' E 008°09'0 0.0
2016-Aug-19 21:33N 53°35' E 008°09'0 0.0
2016-Aug-19 20:33N 53°35' E 008°09'0 0.0
2016-Aug-19 19:30N 53°35' E 008°09'0 0.0
2016-Aug-19 18:24N 53°35' E 008°09'0 0.0
2016-Aug-19 17:18N 53°35' E 008°09'0 0.0
2016-Aug-19 02:24N 53°35' E 008°09'0 0.0
2016-Aug-18 12:21N 53°35' E 008°09'0 0.0
2016-Aug-18 03:09N 53°35' E 008°09'0 0.0
2016-Aug-18 02:18N 53°35' E 008°09'0 0.0
2016-Aug-18 01:33N 53°35' E 008°09'0 0.0
2016-Aug-17 20:30N 53°35' E 008°09'0 0.0
2016-Aug-17 09:32N 53°35' E 008°10'8 7.3
2016-Aug-17 08:30N 53°42' E 008°04'1010.5
2016-Aug-17 07:33N 53°50' E 007°54'1111.4
2016-Aug-17 06:34N 53°57' E 007°39'1111.0
2016-Aug-17 05:33N 54°06' E 007°29'3 2.7
2016-Aug-17 04:34N 54°07' E 007°24'2 1.5
2016-Aug-17 03:33N 54°07' E 007°27'2 2.2
2016-Aug-17 02:34N 54°09' E 007°27'7 6.8
2016-Aug-17 01:34N 54°09' E 007°15'1510.0
2016-Aug-17 00:05N 54°09' E 006°50'710.4
2016-Aug-16 23:22N 54°08' E 006°37'8 9.4
2016-Aug-16 22:33N 54°14' E 006°29'1111.4
2016-Aug-16 21:34N 54°25' E 006°29'1611.4
2016-Aug-16 20:07N 54°42' E 006°29'711.3
2016-Aug-16 19:31N 54°48' E 006°29'1111.8
2016-Aug-16 18:34N 54°60' E 006°29'1311.6
2016-Aug-16 17:28N 55°12' E 006°32'1011.4
2016-Aug-16 16:33N 55°23' E 006°34'1111.2
2016-Aug-16 15:33N 55°34' E 006°37'1211.1
2016-Aug-16 14:26N 55°46' E 006°39'1411.1
2016-Aug-16 13:09N 56°00' E 006°43'711.2
2016-Aug-16 12:33N 56°07' E 006°45'1111.3
2016-Aug-16 11:34N 56°18' E 006°48'1211.5
2016-Aug-16 10:33N 56°29' E 006°51'1211.7
2016-Aug-16 09:32N 56°41' E 006°54'1211.7
2016-Aug-16 08:33N 56°52' E 006°56'1111.4
2016-Aug-16 07:34N 57°04' E 006°60'3210.8
2016-Aug-16 04:33N 57°18' E 007°53'1110.8
2016-Aug-16 03:33N 57°23' E 008°11'1110.7
2016-Aug-16 02:32N 57°28' E 008°29'1210.8
2016-Aug-16 01:24N 57°33' E 008°50'910.7
2016-Aug-16 00:33N 57°37' E 009°05'1110.5
2016-Aug-15 23:33N 57°42' E 009°23'1010.5
2016-Aug-15 22:33N 57°46' E 009°41'1110.8
2016-Aug-15 21:33N 57°50' E 009°59'1110.8
2016-Aug-15 20:33N 57°50' E 010°20'1111.3
2016-Aug-15 19:32N 57°49' E 010°41'7 7.3
2016-Aug-15 18:32N 57°41' E 010°42'0 0.4
2016-Aug-15 17:33N 57°41' E 010°42'0 0.1
2016-Aug-15 16:33N 57°41' E 010°42'0 0.0
2016-Aug-15 15:30N 57°41' E 010°42'0 0.1
2016-Aug-15 14:18N 57°41' E 010°42'5 6.7
2016-Aug-15 13:33N 57°38' E 010°49'1211.8
2016-Aug-15 12:33N 57°33' E 011°09'1211.5
2016-Aug-15 11:33N 57°27' E 011°27'1212.4
2016-Aug-15 10:33N 57°15' E 011°34'1211.9
2016-Aug-15 09:33N 57°04' E 011°43'1211.7
2016-Aug-15 08:33N 56°53' E 011°49'1110.6
2016-Aug-15 07:33N 56°42' E 011°51'1312.2
2016-Aug-15 06:31N 56°31' E 011°38'7310.2
2016-Aug-14 23:20N 55°21' E 011°02'8 9.3
2016-Aug-14 22:29N 55°14' E 011°06'910.0
2016-Aug-14 21:33N 55°05' E 010°59'1010.1
2016-Aug-14 20:34N 54°56' E 010°53'1110.9
2016-Aug-14 19:33N 54°45' E 010°48'9 9.1
2016-Aug-14 18:33N 54°37' E 010°56'1110.8
2016-Aug-14 17:33N 54°35' E 011°14'1111.2
2016-Aug-14 16:33N 54°30' E 011°32'1111.3
2016-Aug-14 15:34N 54°27' E 011°51'1110.8
2016-Aug-14 14:34N 54°27' E 012°09'10 9.8
2016-Aug-14 13:31N 54°36' E 012°17'9 9.4
2016-Aug-14 12:32N 54°41' E 012°30'4510.6
2016-Aug-14 08:19N 54°59' E 013°41'710.0
2016-Aug-14 07:33N 55°02' E 013°53'1010.4
2016-Aug-14 06:33N 55°08' E 014°08'2211.0
2016-Aug-14 04:33N 55°24' E 014°33'1010.1
2016-Aug-14 03:33N 55°30' E 014°47'1010.4
2016-Aug-14 02:33N 55°35' E 015°04'1010.4
2016-Aug-14 01:33N 55°38' E 015°22'346 9.9
2016-Aug-12 14:33N 59°37' E 023°09'1212.1
2016-Aug-12 13:33N 59°40' E 023°32'1311.9
2016-Aug-12 12:29N 59°44' E 023°56'1511.8
2016-Aug-12 11:13N 59°47' E 024°25'5811.7
2016-Aug-12 06:13N 59°59' E 026°19'710.2
2016-Aug-12 05:34N 60°05' E 026°27'4 4.1
2016-Aug-12 04:31N 60°09' E 026°30'0 0.0
2016-Aug-12 03:31N 60°09' E 026°30'0 0.0
2016-Aug-12 02:31N 60°09' E 026°30'0 0.0
2016-Aug-12 01:25N 60°09' E 026°30'0 0.0
2016-Aug-12 00:31N 60°09' E 026°30'0 0.0
2016-Aug-11 23:31N 60°09' E 026°30'0 0.0
2016-Aug-11 22:31N 60°09' E 026°30'0 0.0
2016-Aug-11 21:31N 60°09' E 026°30'0 0.1
2016-Aug-11 20:31N 60°09' E 026°30'0 0.0
2016-Aug-11 19:31N 60°09' E 026°30'0 0.0
2016-Aug-11 18:32N 60°09' E 026°30'0 0.0
2016-Aug-11 17:22N 60°09' E 026°30'0 0.2
2016-Aug-11 16:33N 60°09' E 026°30'0 0.2
2016-Aug-11 15:31N 60°09' E 026°30'0 0.1
2016-Aug-11 14:33N 60°09' E 026°30'0 0.1
2016-Aug-11 13:33N 60°09' E 026°29'0 0.0
2016-Aug-11 12:33N 60°09' E 026°29'0 0.0
2016-Aug-11 11:33N 60°09' E 026°29'0 0.0
2016-Aug-11 10:33N 60°09' E 026°30'0 0.0
2016-Aug-11 09:33N 60°09' E 026°30'0 0.0
2016-Aug-11 08:33N 60°09' E 026°30'0 0.0
2016-Aug-11 07:33N 60°09' E 026°30'0 0.0
2016-Aug-11 06:31N 60°09' E 026°30'0 0.1
2016-Aug-11 05:31N 60°09' E 026°30'0 0.1
2016-Aug-11 04:30N 60°09' E 026°30'0 0.0
2016-Aug-11 03:30N 60°09' E 026°30'0 0.0
2016-Aug-11 02:33N 60°09' E 026°30'0 0.0
2016-Aug-11 01:33N 60°09' E 026°30'0 0.0
2016-Aug-11 00:33N 60°09' E 026°30'0 0.0
2016-Aug-10 23:33N 60°09' E 026°30'  

Dump ship's entire track history